sensor_id;sensor_type;location;lat;lon;timestamp;pressure;altitude;pressure_sealevel;temperature;humidity
72066;BME280;59939;52.516;13.420;2022-07-29T00:00:35;100970.72;;;15.88;57.44
72066;BME280;59939;52.516;13.420;2022-07-29T00:03:42;100970.78;;;16.00;57.23
72066;BME280;59939;52.516;13.420;2022-07-29T00:06:46;100970.91;;;15.83;57.94
72066;BME280;59939;52.516;13.420;2022-07-29T00:09:53;100970.91;;;15.83;58.25
72066;BME280;59939;52.516;13.420;2022-07-29T00:12:57;100975.44;;;15.87;58.07
72066;BME280;59939;52.516;13.420;2022-07-29T00:16:01;100976.16;;;15.76;58.55
72066;BME280;59939;52.516;13.420;2022-07-29T00:19:13;100971.56;;;15.80;58.41
72066;BME280;59939;52.516;13.420;2022-07-29T00:22:17;100975.41;;;15.66;59.09
72066;BME280;59939;52.516;13.420;2022-07-29T00:25:29;100968.84;;;15.50;59.75
72066;BME280;59939;52.516;13.420;2022-07-29T00:28:33;100960.25;;;15.43;60.15
72066;BME280;59939;52.516;13.420;2022-07-29T00:31:37;100962.25;;;15.63;59.65
72066;BME280;59939;52.516;13.420;2022-07-29T00:34:43;100960.22;;;15.52;60.33
72066;BME280;59939;52.516;13.420;2022-07-29T00:38:08;100951.56;;;15.53;60.04
72066;BME280;59939;52.516;13.420;2022-07-29T00:41:17;100959.50;;;15.34;60.96
72066;BME280;59939;52.516;13.420;2022-07-29T00:44:41;100955.00;;;15.50;60.67
72066;BME280;59939;52.516;13.420;2022-07-29T00:47:45;100960.81;;;15.28;61.40
72066;BME280;59939;52.516;13.420;2022-07-29T00:50:51;100958.31;;;15.44;60.89
72066;BME280;59939;52.516;13.420;2022-07-29T00:53:59;100952.56;;;15.57;60.55
72066;BME280;59939;52.516;13.420;2022-07-29T00:57:03;100956.31;;;15.74;59.84
72066;BME280;59939;52.516;13.420;2022-07-29T01:00:18;100948.22;;;15.69;60.15
72066;BME280;59939;52.516;13.420;2022-07-29T01:03:22;100950.97;;;15.48;61.02
72066;BME280;59939;52.516;13.420;2022-07-29T01:06:29;100946.84;;;15.54;60.61
72066;BME280;59939;52.516;13.420;2022-07-29T01:09:36;100944.38;;;15.61;60.71
72066;BME280;59939;52.516;13.420;2022-07-29T01:12:42;100947.09;;;15.40;61.43
72066;BME280;59939;52.516;13.420;2022-07-29T01:16:02;100945.66;;;15.34;61.44
72066;BME280;59939;52.516;13.420;2022-07-29T01:19:48;100943.00;;;15.17;62.24
72066;BME280;59939;52.516;13.420;2022-07-29T01:23:10;100934.75;;;15.08;62.63
72066;BME280;59939;52.516;13.420;2022-07-29T01:30:15;100919.75;;;15.18;62.41
72066;BME280;59939;52.516;13.420;2022-07-29T01:33:21;100916.59;;;15.28;62.19
72066;BME280;59939;52.516;13.420;2022-07-29T01:36:55;100905.25;;;15.21;62.59
72066;BME280;59939;52.516;13.420;2022-07-29T01:40:10;100911.13;;;15.19;62.48
72066;BME280;59939;52.516;13.420;2022-07-29T01:43:18;100891.66;;;15.07;63.26
72066;BME280;59939;52.516;13.420;2022-07-29T01:46:32;100880.63;;;15.07;63.18
72066;BME280;59939;52.516;13.420;2022-07-29T01:49:41;100871.31;;;14.82;64.11
72066;BME280;59939;52.516;13.420;2022-07-29T01:53:10;100871.75;;;14.93;64.02
72066;BME280;59939;52.516;13.420;2022-07-29T01:56:26;100864.84;;;14.78;64.45
72066;BME280;59939;52.516;13.420;2022-07-29T01:59:36;100864.53;;;14.71;65.05
72066;BME280;59939;52.516;13.420;2022-07-29T02:02:48;100857.25;;;14.66;65.31
72066;BME280;59939;52.516;13.420;2022-07-29T02:05:55;100857.41;;;14.70;64.97
72066;BME280;59939;52.516;13.420;2022-07-29T02:09:09;100850.25;;;14.69;65.22
72066;BME280;59939;52.516;13.420;2022-07-29T02:12:29;100851.84;;;14.79;64.65
72066;BME280;59939;52.516;13.420;2022-07-29T02:15:35;100859.28;;;14.87;64.48
72066;BME280;59939;52.516;13.420;2022-07-29T02:19:13;100862.19;;;14.90;64.29
72066;BME280;59939;52.516;13.420;2022-07-29T02:22:20;100865.41;;;14.54;65.67
72066;BME280;59939;52.516;13.420;2022-07-29T02:25:26;100864.59;;;14.54;65.90
72066;BME280;59939;52.516;13.420;2022-07-29T02:28:33;100862.28;;;14.64;65.18
72066;BME280;59939;52.516;13.420;2022-07-29T02:31:39;100868.84;;;14.89;64.53
72066;BME280;59939;52.516;13.420;2022-07-29T02:34:44;100863.03;;;14.82;64.33
72066;BME280;59939;52.516;13.420;2022-07-29T02:37:51;100872.41;;;14.90;64.37
72066;BME280;59939;52.516;13.420;2022-07-29T02:41:17;100870.56;;;14.64;65.13
72066;BME280;59939;52.516;13.420;2022-07-29T02:44:24;100868.75;;;14.77;64.76
72066;BME280;59939;52.516;13.420;2022-07-29T02:47:34;100872.13;;;14.83;64.35
72066;BME280;59939;52.516;13.420;2022-07-29T02:51:01;100881.84;;;14.89;64.19
72066;BME280;59939;52.516;13.420;2022-07-29T02:54:10;100872.94;;;15.13;63.46
72066;BME280;59939;52.516;13.420;2022-07-29T02:57:19;100876.06;;;14.73;64.62
72066;BME280;59939;52.516;13.420;2022-07-29T03:00:27;100870.91;;;14.63;65.25
72066;BME280;59939;52.516;13.420;2022-07-29T03:03:35;100863.50;;;14.84;64.44
72066;BME280;59939;52.516;13.420;2022-07-29T03:06:40;100871.03;;;14.75;64.83
72066;BME280;59939;52.516;13.420;2022-07-29T03:09:46;100867.47;;;15.04;63.89
72066;BME280;59939;52.516;13.420;2022-07-29T03:12:52;100870.13;;;14.92;64.28
72066;BME280;59939;52.516;13.420;2022-07-29T03:15:58;100867.78;;;14.73;64.94
72066;BME280;59939;52.516;13.420;2022-07-29T03:19:03;100869.75;;;15.02;64.13
72066;BME280;59939;52.516;13.420;2022-07-29T03:22:38;100868.59;;;14.74;64.79
72066;BME280;59939;52.516;13.420;2022-07-29T03:25:42;100863.38;;;14.81;64.60
72066;BME280;59939;52.516;13.420;2022-07-29T03:28:46;100862.09;;;15.08;64.02
72066;BME280;59939;52.516;13.420;2022-07-29T03:31:51;100857.13;;;15.22;63.22
72066;BME280;59939;52.516;13.420;2022-07-29T03:34:55;100855.03;;;15.19;63.20
72066;BME280;59939;52.516;13.420;2022-07-29T03:38:00;100855.41;;;15.09;63.45
72066;BME280;59939;52.516;13.420;2022-07-29T03:41:07;100851.66;;;15.13;62.98
72066;BME280;59939;52.516;13.420;2022-07-29T03:44:22;100848.88;;;15.13;63.23
72066;BME280;59939;52.516;13.420;2022-07-29T03:47:28;100846.28;;;14.87;64.20
72066;BME280;59939;52.516;13.420;2022-07-29T03:50:35;100836.06;;;15.09;63.38
72066;BME280;59939;52.516;13.420;2022-07-29T03:53:40;100839.69;;;15.00;63.49
72066;BME280;59939;52.516;13.420;2022-07-29T03:56:46;100833.13;;;14.84;63.49
72066;BME280;59939;52.516;13.420;2022-07-29T03:59:54;100844.75;;;14.98;63.34
72066;BME280;59939;52.516;13.420;2022-07-29T04:02:59;100845.31;;;15.13;62.97
72066;BME280;59939;52.516;13.420;2022-07-29T04:06:06;100847.88;;;15.18;63.10
72066;BME280;59939;52.516;13.420;2022-07-29T04:09:11;100851.75;;;15.46;61.69
72066;BME280;59939;52.516;13.420;2022-07-29T04:12:17;100846.81;;;15.52;61.46
72066;BME280;59939;52.516;13.420;2022-07-29T04:15:24;100856.34;;;15.42;61.89
72066;BME280;59939;52.516;13.420;2022-07-29T04:18:30;100855.53;;;15.62;61.00
72066;BME280;59939;52.516;13.420;2022-07-29T04:21:44;100860.38;;;15.45;60.91
72066;BME280;59939;52.516;13.420;2022-07-29T04:24:49;100859.25;;;15.66;60.80
72066;BME280;59939;52.516;13.420;2022-07-29T04:28:08;100854.31;;;15.51;61.17
72066;BME280;59939;52.516;13.420;2022-07-29T04:31:14;100860.25;;;15.62;60.44
72066;BME280;59939;52.516;13.420;2022-07-29T04:34:22;100861.59;;;15.56;60.56
72066;BME280;59939;52.516;13.420;2022-07-29T04:37:32;100856.72;;;15.94;58.96
72066;BME280;59939;52.516;13.420;2022-07-29T04:40:36;100860.50;;;15.90;59.02
72066;BME280;59939;52.516;13.420;2022-07-29T04:43:42;100853.00;;;15.90;59.09
72066;BME280;59939;52.516;13.420;2022-07-29T04:46:47;100849.94;;;16.04;58.29
72066;BME280;59939;52.516;13.420;2022-07-29T04:49:52;100860.13;;;16.12;57.99
72066;BME280;59939;52.516;13.420;2022-07-29T04:52:56;100864.38;;;16.10;58.17
72066;BME280;59939;52.516;13.420;2022-07-29T04:56:01;100866.00;;;16.11;58.28
72066;BME280;59939;52.516;13.420;2022-07-29T04:59:06;100874.03;;;16.37;57.46
72066;BME280;59939;52.516;13.420;2022-07-29T05:02:18;100867.75;;;16.15;57.81
72066;BME280;59939;52.516;13.420;2022-07-29T05:05:24;100866.91;;;16.48;56.81
72066;BME280;59939;52.516;13.420;2022-07-29T05:08:32;100861.59;;;16.43;56.75
72066;BME280;59939;52.516;13.420;2022-07-29T05:11:38;100858.84;;;16.55;56.54
72066;BME280;59939;52.516;13.420;2022-07-29T05:14:43;100862.09;;;16.93;54.91
72066;BME280;59939;52.516;13.420;2022-07-29T05:18:01;100866.72;;;17.26;54.13
72066;BME280;59939;52.516;13.420;2022-07-29T05:21:08;100863.50;;;17.12;54.63
72066;BME280;59939;52.516;13.420;2022-07-29T05:24:12;100859.91;;;17.23;54.28
72066;BME280;59939;52.516;13.420;2022-07-29T05:27:16;100859.59;;;16.76;55.22
72066;BME280;59939;52.516;13.420;2022-07-29T05:30:20;100860.50;;;17.05;54.47
72066;BME280;59939;52.516;13.420;2022-07-29T05:33:26;100856.47;;;16.66;55.51
72066;BME280;59939;52.516;13.420;2022-07-29T05:36:31;100854.59;;;16.94;54.74
72066;BME280;59939;52.516;13.420;2022-07-29T05:39:40;100859.56;;;17.01;54.78
72066;BME280;59939;52.516;13.420;2022-07-29T05:42:44;100851.94;;;17.10;54.70
72066;BME280;59939;52.516;13.420;2022-07-29T05:45:48;100841.66;;;17.10;54.38
72066;BME280;59939;52.516;13.420;2022-07-29T05:48:52;100848.22;;;17.18;54.74
72066;BME280;59939;52.516;13.420;2022-07-29T05:51:57;100853.91;;;17.61;52.66
72066;BME280;59939;52.516;13.420;2022-07-29T05:55:04;100858.16;;;17.83;52.37
72066;BME280;59939;52.516;13.420;2022-07-29T05:58:09;100852.19;;;17.69;52.49
72066;BME280;59939;52.516;13.420;2022-07-29T06:01:17;100863.16;;;17.78;52.48
72066;BME280;59939;52.516;13.420;2022-07-29T06:04:21;100852.50;;;17.80;52.40
72066;BME280;59939;52.516;13.420;2022-07-29T06:07:26;100864.97;;;18.30;51.46
72066;BME280;59939;52.516;13.420;2022-07-29T06:10:31;100866.28;;;18.79;49.72
72066;BME280;59939;52.516;13.420;2022-07-29T06:13:43;100864.59;;;18.75;50.42
72066;BME280;59939;52.516;13.420;2022-07-29T06:16:47;100856.69;;;18.61;50.16
72066;BME280;59939;52.516;13.420;2022-07-29T06:20:06;100855.88;;;19.08;48.75
72066;BME280;59939;52.516;13.420;2022-07-29T06:23:10;100846.88;;;19.49;47.84
72066;BME280;59939;52.516;13.420;2022-07-29T06:26:14;100847.28;;;18.97;49.17
72066;BME280;59939;52.516;13.420;2022-07-29T06:29:26;100832.97;;;19.49;48.07
72066;BME280;59939;52.516;13.420;2022-07-29T06:32:30;100848.47;;;20.28;45.76
72066;BME280;59939;52.516;13.420;2022-07-29T06:35:35;100846.38;;;19.63;46.93
72066;BME280;59939;52.516;13.420;2022-07-29T06:38:44;100842.28;;;19.96;46.37
72066;BME280;59939;52.516;13.420;2022-07-29T06:41:51;100850.69;;;20.18;46.22
72066;BME280;59939;52.516;13.420;2022-07-29T06:45:01;100854.50;;;19.91;46.03
72066;BME280;59939;52.516;13.420;2022-07-29T06:48:06;100846.97;;;20.53;45.41
72066;BME280;59939;52.516;13.420;2022-07-29T06:51:11;100847.75;;;21.03;43.95
72066;BME280;59939;52.516;13.420;2022-07-29T06:54:15;100854.25;;;21.10;43.71
72066;BME280;59939;52.516;13.420;2022-07-29T06:57:19;100854.28;;;20.61;44.45
72066;BME280;59939;52.516;13.420;2022-07-29T07:00:35;100858.22;;;20.60;44.96
72066;BME280;59939;52.516;13.420;2022-07-29T07:03:39;100862.78;;;21.21;43.26
72066;BME280;59939;52.516;13.420;2022-07-29T07:06:43;100864.25;;;20.89;43.79
72066;BME280;59939;52.516;13.420;2022-07-29T07:09:47;100867.56;;;21.77;42.09
72066;BME280;59939;52.516;13.420;2022-07-29T07:12:52;100872.63;;;21.68;41.61
72066;BME280;59939;52.516;13.420;2022-07-29T07:15:56;100872.66;;;22.01;41.60
72066;BME280;59939;52.516;13.420;2022-07-29T07:19:01;100872.03;;;22.15;40.53
72066;BME280;59939;52.516;13.420;2022-07-29T07:22:05;100877.97;;;21.50;42.33
72066;BME280;59939;52.516;13.420;2022-07-29T07:25:11;100858.91;;;22.19;41.16
72066;BME280;59939;52.516;13.420;2022-07-29T07:28:23;100850.28;;;22.35;40.25
72066;BME280;59939;52.516;13.420;2022-07-29T07:31:27;100860.09;;;22.59;39.85
72066;BME280;59939;52.516;13.420;2022-07-29T07:34:31;100852.84;;;22.54;40.01
72066;BME280;59939;52.516;13.420;2022-07-29T07:37:37;100852.84;;;22.13;40.80
72066;BME280;59939;52.516;13.420;2022-07-29T07:40:41;100856.50;;;23.68;37.77
72066;BME280;59939;52.516;13.420;2022-07-29T07:43:45;100849.53;;;24.42;36.58
72066;BME280;59939;52.516;13.420;2022-07-29T07:46:49;100850.66;;;25.58;34.35
72066;BME280;59939;52.516;13.420;2022-07-29T07:49:54;100849.63;;;26.11;33.00
72066;BME280;59939;52.516;13.420;2022-07-29T07:52:58;100847.66;;;27.15;31.10
72066;BME280;59939;52.516;13.420;2022-07-29T07:56:05;100845.41;;;26.47;31.66
72066;BME280;59939;52.516;13.420;2022-07-29T07:59:13;100835.41;;;25.52;33.60
72066;BME280;59939;52.516;13.420;2022-07-29T08:02:18;100847.66;;;26.67;31.45
72066;BME280;59939;52.516;13.420;2022-07-29T08:05:22;100841.25;;;26.66;31.11
72066;BME280;59939;52.516;13.420;2022-07-29T08:08:29;100831.09;;;26.76;30.93
72066;BME280;59939;52.516;13.420;2022-07-29T08:11:41;100840.47;;;27.10;30.54
72066;BME280;59939;52.516;13.420;2022-07-29T08:14:45;100846.38;;;27.23;30.09
72066;BME280;59939;52.516;13.420;2022-07-29T08:17:51;100825.00;;;28.24;28.85
72066;BME280;59939;52.516;13.420;2022-07-29T08:20:56;100833.97;;;26.10;31.66
72066;BME280;59939;52.516;13.420;2022-07-29T08:24:01;100828.38;;;26.65;30.83
72066;BME280;59939;52.516;13.420;2022-07-29T08:27:26;100831.88;;;27.24;29.74
72066;BME280;59939;52.516;13.420;2022-07-29T08:30:48;100821.97;;;28.62;28.20
72066;BME280;59939;52.516;13.420;2022-07-29T08:33:52;100830.59;;;27.67;28.57
72066;BME280;59939;52.516;13.420;2022-07-29T08:36:56;100818.50;;;28.27;28.15
72066;BME280;59939;52.516;13.420;2022-07-29T08:40:01;100811.19;;;29.66;26.26
72066;BME280;59939;52.516;13.420;2022-07-29T08:43:07;100817.22;;;26.51;30.97
72066;BME280;59939;52.516;13.420;2022-07-29T08:46:13;100817.41;;;27.22;29.37
72066;BME280;59939;52.516;13.420;2022-07-29T08:49:18;100811.69;;;26.40;31.18
72066;BME280;59939;52.516;13.420;2022-07-29T08:52:30;100811.75;;;26.81;30.06
72066;BME280;59939;52.516;13.420;2022-07-29T08:55:39;100817.94;;;26.62;30.45
72066;BME280;59939;52.516;13.420;2022-07-29T08:58:44;100821.34;;;25.66;32.26
72066;BME280;59939;52.516;13.420;2022-07-29T09:01:52;100813.72;;;25.70;32.42
72066;BME280;59939;52.516;13.420;2022-07-29T09:04:59;100815.50;;;24.64;33.63
72066;BME280;59939;52.516;13.420;2022-07-29T09:08:04;100823.47;;;24.91;33.11
72066;BME280;59939;52.516;13.420;2022-07-29T09:11:12;100810.50;;;25.68;31.67
72066;BME280;59939;52.516;13.420;2022-07-29T09:14:16;100821.06;;;25.11;32.36
72066;BME280;59939;52.516;13.420;2022-07-29T09:17:46;100806.03;;;26.44;30.20
72066;BME280;59939;52.516;13.420;2022-07-29T09:20:57;100813.75;;;26.81;29.27
72066;BME280;59939;52.516;13.420;2022-07-29T09:24:22;100810.44;;;26.96;28.79
72066;BME280;59939;52.516;13.420;2022-07-29T09:27:27;100815.97;;;27.07;28.37
72066;BME280;59939;52.516;13.420;2022-07-29T09:30:34;100810.53;;;26.27;29.81
72066;BME280;59939;52.516;13.420;2022-07-29T09:33:38;100806.72;;;27.41;27.83
72066;BME280;59939;52.516;13.420;2022-07-29T09:36:52;100805.88;;;27.78;27.55
72066;BME280;59939;52.516;13.420;2022-07-29T09:39:57;100806.84;;;26.44;29.25
72066;BME280;59939;52.516;13.420;2022-07-29T09:43:10;100799.41;;;25.15;30.47
72066;BME280;59939;52.516;13.420;2022-07-29T09:46:15;100806.66;;;24.77;31.82
72066;BME280;59939;52.516;13.420;2022-07-29T09:49:19;100804.16;;;25.43;30.30
72066;BME280;59939;52.516;13.420;2022-07-29T09:52:24;100795.41;;;25.16;31.73
72066;BME280;59939;52.516;13.420;2022-07-29T09:55:28;100799.81;;;26.67;29.13
72066;BME280;59939;52.516;13.420;2022-07-29T09:58:32;100788.47;;;26.22;29.65
72066;BME280;59939;52.516;13.420;2022-07-29T10:01:40;100787.03;;;27.03;28.18
72066;BME280;59939;52.516;13.420;2022-07-29T10:04:44;100793.06;;;27.73;26.76
72066;BME280;59939;52.516;13.420;2022-07-29T10:07:59;100777.22;;;27.18;27.31
72066;BME280;59939;52.516;13.420;2022-07-29T10:11:15;100798.31;;;27.03;27.06
72066;BME280;59939;52.516;13.420;2022-07-29T10:14:20;100788.38;;;27.29;26.80
72066;BME280;59939;52.516;13.420;2022-07-29T10:17:27;100750.91;;;28.67;25.15
72066;BME280;59939;52.516;13.420;2022-07-29T10:20:32;100777.19;;;29.50;24.43
72066;BME280;59939;52.516;13.420;2022-07-29T10:23:37;100776.06;;;28.81;24.97
72066;BME280;59939;52.516;13.420;2022-07-29T10:26:42;100760.25;;;28.40;24.74
72066;BME280;59939;52.516;13.420;2022-07-29T10:29:46;100781.44;;;26.96;26.77
72066;BME280;59939;52.516;13.420;2022-07-29T10:36:21;100774.69;;;27.27;26.29
72066;BME280;59939;52.516;13.420;2022-07-29T10:39:54;100773.38;;;27.36;26.07
72066;BME280;59939;52.516;13.420;2022-07-29T10:43:07;100770.81;;;26.73;26.79
72066;BME280;59939;52.516;13.420;2022-07-29T10:46:19;100759.59;;;27.75;25.24
72066;BME280;59939;52.516;13.420;2022-07-29T10:49:25;100770.31;;;28.88;23.68
72066;BME280;59939;52.516;13.420;2022-07-29T10:52:52;100775.66;;;26.69;26.75
72066;BME280;59939;52.516;13.420;2022-07-29T10:55:57;100746.78;;;28.71;24.62
72066;BME280;59939;52.516;13.420;2022-07-29T10:59:26;100756.06;;;28.72;24.08
72066;BME280;59939;52.516;13.420;2022-07-29T11:05:56;100753.66;;;27.97;25.40
72066;BME280;59939;52.516;13.420;2022-07-29T11:09:17;100767.63;;;27.12;26.76
72066;BME280;59939;52.516;13.420;2022-07-29T11:15:54;100751.03;;;28.09;25.31
72066;BME280;59939;52.516;13.420;2022-07-29T11:22:34;100757.25;;;27.70;26.35
72066;BME280;59939;52.516;13.420;2022-07-29T11:25:39;100744.19;;;29.63;24.32
72066;BME280;59939;52.516;13.420;2022-07-29T11:32:12;100756.06;;;30.75;22.42
72066;BME280;59939;52.516;13.420;2022-07-29T11:35:22;100746.47;;;31.56;21.89
72066;BME280;59939;52.516;13.420;2022-07-29T11:38:29;100748.34;;;31.34;22.31
72066;BME280;59939;52.516;13.420;2022-07-29T11:41:34;100735.19;;;32.07;21.07
72066;BME280;59939;52.516;13.420;2022-07-29T11:45:15;100738.00;;;30.53;22.86
72066;BME280;59939;52.516;13.420;2022-07-29T11:48:23;100729.00;;;31.45;22.46
72066;BME280;59939;52.516;13.420;2022-07-29T11:51:28;100736.78;;;31.28;22.52
72066;BME280;59939;52.516;13.420;2022-07-29T11:54:34;100725.63;;;33.08;20.93
72066;BME280;59939;52.516;13.420;2022-07-29T11:57:46;100725.66;;;31.88;21.61
72066;BME280;59939;52.516;13.420;2022-07-29T12:00:54;100724.72;;;31.11;23.32
72066;BME280;59939;52.516;13.420;2022-07-29T12:04:09;100712.06;;;31.16;23.16
72066;BME280;59939;52.516;13.420;2022-07-29T12:07:13;100699.00;;;30.90;23.92
72066;BME280;59939;52.516;13.420;2022-07-29T12:10:17;100721.47;;;30.03;25.32
72066;BME280;59939;52.516;13.420;2022-07-29T12:13:22;100720.84;;;29.59;26.15
72066;BME280;59939;52.516;13.420;2022-07-29T12:16:37;100708.44;;;31.41;23.74
72066;BME280;59939;52.516;13.420;2022-07-29T12:19:43;100715.03;;;30.18;25.13
72066;BME280;59939;52.516;13.420;2022-07-29T12:22:50;100706.59;;;30.64;25.03
72066;BME280;59939;52.516;13.420;2022-07-29T12:25:58;100689.13;;;31.77;23.53
72066;BME280;59939;52.516;13.420;2022-07-29T12:29:03;100694.34;;;30.83;25.68
72066;BME280;59939;52.516;13.420;2022-07-29T12:32:08;100694.78;;;31.77;24.47
72066;BME280;59939;52.516;13.420;2022-07-29T12:35:15;100695.31;;;31.60;24.68
72066;BME280;59939;52.516;13.420;2022-07-29T12:38:21;100694.72;;;29.71;26.93
72066;BME280;59939;52.516;13.420;2022-07-29T12:41:28;100693.25;;;30.64;25.96
72066;BME280;59939;52.516;13.420;2022-07-29T12:44:57;100693.34;;;29.04;26.71
72066;BME280;59939;52.516;13.420;2022-07-29T12:48:05;100700.78;;;28.51;28.22
72066;BME280;59939;52.516;13.420;2022-07-29T12:51:12;100701.91;;;25.99;31.59
72066;BME280;59939;52.516;13.420;2022-07-29T12:54:21;100708.00;;;26.39;31.23
72066;BME280;59939;52.516;13.420;2022-07-29T12:57:27;100687.25;;;27.04;30.94
72066;BME280;59939;52.516;13.420;2022-07-29T13:00:40;100687.56;;;30.64;25.00
72066;BME280;59939;52.516;13.420;2022-07-29T13:03:46;100672.03;;;31.14;23.71
72066;BME280;59939;52.516;13.420;2022-07-29T13:07:04;100684.19;;;30.98;23.46
72066;BME280;59939;52.516;13.420;2022-07-29T13:13:16;100666.75;;;29.21;27.00
72066;BME280;59939;52.516;13.420;2022-07-29T13:16:21;100674.06;;;28.99;27.44
72066;BME280;59939;52.516;13.420;2022-07-29T13:19:51;100673.31;;;26.52;30.58
72066;BME280;59939;52.516;13.420;2022-07-29T13:23:21;100680.13;;;26.92;29.94
72066;BME280;59939;52.516;13.420;2022-07-29T13:26:33;100658.19;;;28.22;28.32
72066;BME280;59939;52.516;13.420;2022-07-29T13:29:42;100664.25;;;28.64;27.58
72066;BME280;59939;52.516;13.420;2022-07-29T13:32:49;100668.47;;;28.32;27.68
72066;BME280;59939;52.516;13.420;2022-07-29T13:35:53;100658.63;;;27.67;28.21
72066;BME280;59939;52.516;13.420;2022-07-29T13:38:57;100652.19;;;30.85;24.62
72066;BME280;59939;52.516;13.420;2022-07-29T13:42:02;100652.09;;;30.43;26.33
72066;BME280;59939;52.516;13.420;2022-07-29T13:45:21;100641.34;;;32.92;22.64
72066;BME280;59939;52.516;13.420;2022-07-29T13:48:25;100635.09;;;31.68;23.23
72066;BME280;59939;52.516;13.420;2022-07-29T13:51:29;100651.41;;;31.64;23.24
72066;BME280;59939;52.516;13.420;2022-07-29T13:54:36;100649.13;;;29.33;27.17
72066;BME280;59939;52.516;13.420;2022-07-29T13:57:48;100646.63;;;30.36;26.18
72066;BME280;59939;52.516;13.420;2022-07-29T14:00:53;100641.50;;;30.31;25.76
72066;BME280;59939;52.516;13.420;2022-07-29T14:03:57;100631.56;;;32.50;23.56
72066;BME280;59939;52.516;13.420;2022-07-29T14:07:04;100639.38;;;32.11;23.67
72066;BME280;59939;52.516;13.420;2022-07-29T14:10:08;100642.28;;;26.97;31.02
72066;BME280;59939;52.516;13.420;2022-07-29T14:13:23;100636.84;;;27.40;30.36
72066;BME280;59939;52.516;13.420;2022-07-29T14:16:28;100637.88;;;29.49;27.41
72066;BME280;59939;52.516;13.420;2022-07-29T14:19:32;100617.06;;;32.22;24.19
72066;BME280;59939;52.516;13.420;2022-07-29T14:22:39;100616.72;;;32.55;23.41
72066;BME280;59939;52.516;13.420;2022-07-29T14:25:44;100619.03;;;32.13;23.85
72066;BME280;59939;52.516;13.420;2022-07-29T14:28:50;100610.22;;;31.60;24.15
72066;BME280;59939;52.516;13.420;2022-07-29T14:31:57;100617.31;;;32.15;23.85
72066;BME280;59939;52.516;13.420;2022-07-29T14:35:01;100616.50;;;30.88;25.80
72066;BME280;59939;52.516;13.420;2022-07-29T14:38:06;100610.22;;;31.09;25.25
72066;BME280;59939;52.516;13.420;2022-07-29T14:41:13;100602.84;;;31.24;24.90
72066;BME280;59939;52.516;13.420;2022-07-29T14:44:18;100606.81;;;31.90;24.33
72066;BME280;59939;52.516;13.420;2022-07-29T14:47:22;100596.97;;;31.44;24.70
72066;BME280;59939;52.516;13.420;2022-07-29T14:50:27;100605.81;;;31.21;24.34
72066;BME280;59939;52.516;13.420;2022-07-29T14:53:32;100615.09;;;29.57;26.56
72066;BME280;59939;52.516;13.420;2022-07-29T14:56:36;100597.75;;;31.57;24.34
72066;BME280;59939;52.516;13.420;2022-07-29T14:59:41;100592.13;;;33.26;21.89
72066;BME280;59939;52.516;13.420;2022-07-29T15:02:46;100596.06;;;32.32;23.25
72066;BME280;59939;52.516;13.420;2022-07-29T15:06:03;100596.19;;;31.69;23.91
72066;BME280;59939;52.516;13.420;2022-07-29T15:09:10;100596.75;;;31.76;23.04
72066;BME280;59939;52.516;13.420;2022-07-29T15:12:28;100594.31;;;30.99;24.68
72066;BME280;59939;52.516;13.420;2022-07-29T15:15:32;100583.56;;;31.83;23.13
72066;BME280;59939;52.516;13.420;2022-07-29T15:18:37;100589.97;;;30.24;25.10
72066;BME280;59939;52.516;13.420;2022-07-29T15:21:49;100590.47;;;30.35;24.72
72066;BME280;59939;52.516;13.420;2022-07-29T15:24:55;100592.53;;;30.63;24.27
72066;BME280;59939;52.516;13.420;2022-07-29T15:27:59;100587.97;;;30.95;24.39
72066;BME280;59939;52.516;13.420;2022-07-29T15:31:07;100583.53;;;31.95;22.81
72066;BME280;59939;52.516;13.420;2022-07-29T15:34:11;100581.03;;;30.54;24.88
72066;BME280;59939;52.516;13.420;2022-07-29T15:37:15;100591.13;;;30.10;25.41
72066;BME280;59939;52.516;13.420;2022-07-29T15:40:20;100579.97;;;31.19;23.57
72066;BME280;59939;52.516;13.420;2022-07-29T15:43:28;100592.44;;;30.50;24.79
72066;BME280;59939;52.516;13.420;2022-07-29T15:46:32;100591.25;;;29.90;25.60
72066;BME280;59939;52.516;13.420;2022-07-29T15:49:54;100578.44;;;29.85;25.92
72066;BME280;59939;52.516;13.420;2022-07-29T15:52:59;100564.31;;;29.17;26.87
72066;BME280;59939;52.516;13.420;2022-07-29T15:56:03;100577.28;;;29.50;26.51
72066;BME280;59939;52.516;13.420;2022-07-29T15:59:15;100579.03;;;29.08;26.81
72066;BME280;59939;52.516;13.420;2022-07-29T16:02:20;100582.97;;;29.31;26.84
72066;BME280;59939;52.516;13.420;2022-07-29T16:05:27;100575.34;;;29.47;26.41
72066;BME280;59939;52.516;13.420;2022-07-29T16:08:34;100577.03;;;29.61;26.13
72066;BME280;59939;52.516;13.420;2022-07-29T16:11:39;100574.84;;;28.97;27.04
72066;BME280;59939;52.516;13.420;2022-07-29T16:14:46;100563.50;;;29.16;26.79
72066;BME280;59939;52.516;13.420;2022-07-29T16:17:52;100567.56;;;28.40;27.84
72066;BME280;59939;52.516;13.420;2022-07-29T16:20:58;100568.47;;;28.73;27.28
72066;BME280;59939;52.516;13.420;2022-07-29T16:24:03;100563.34;;;28.87;27.04
72066;BME280;59939;52.516;13.420;2022-07-29T16:27:08;100560.00;;;28.93;27.03
72066;BME280;59939;52.516;13.420;2022-07-29T16:30:14;100552.69;;;28.95;26.97
72066;BME280;59939;52.516;13.420;2022-07-29T16:33:20;100547.94;;;29.08;27.14
72066;BME280;59939;52.516;13.420;2022-07-29T16:36:24;100545.19;;;28.29;27.79